Time;durP1;ratioP1;P1;durP2;ratioP2;P2;SDS_P1;SDS_P2;PMS_P1;PMS_P2;Temp;Humidity;BMP_temperature;BMP_pressure;BME280_temperature;BME280_humidity;BME280_pressure;Samples;Min_cycle;Max_cycle;Signal;HPM_P1;HPM_P2
2022/10/05 00:00:59;;;;;;;3.47;1.55;;;;;;;;;;4991073;28;20379;-49
2022/10/05 00:03:35;;;;;;;3.72;1.50;;;;;;;;;;4985518;28;20047;-49
2022/10/05 00:06:05;;;;;;;5.50;1.75;;;;;;;;;;4991421;28;20046;-51
2022/10/05 00:08:41;;;;;;;7.18;1.70;;;;;;;;;;4994252;28;20050;-48
2022/10/05 00:11:08;;;;;;;6.50;2.13;;;;;;;;;;4990743;28;20657;-50
2022/10/05 00:13:49;;;;;;;6.25;1.90;;;;;;;;;;4978099;28;20101;-48
2022/10/05 00:16:21;;;;;;;6.22;2.38;;;;;;;;;;4991768;28;20046;-48
2022/10/05 00:18:51;;;;;;;5.28;2.33;;;;;;;;;;4993858;28;20503;-48
2022/10/05 00:21:27;;;;;;;6.90;2.10;;;;;;;;;;4991200;28;20440;-49
2022/10/05 00:23:59;;;;;;;5.70;1.95;;;;;;;;;;4985980;28;20054;-49
2022/10/05 00:26:34;;;;;;;3.45;1.73;;;;;;;;;;4974967;28;20051;-49
2022/10/05 00:29:20;;;;;;;7.35;2.00;;;;;;;;;;4974817;28;20086;-51
2022/10/05 00:32:01;;;;;;;4.88;2.00;;;;;;;;;;4980394;28;20375;-49
2022/10/05 00:34:31;;;;;;;5.10;2.10;;;;;;;;;;4993228;28;20073;-50
2022/10/05 00:36:58;;;;;;;6.10;2.20;;;;;;;;;;4996934;28;20050;-52
2022/10/05 00:39:28;;;;;;;5.38;2.58;;;;;;;;;;5005095;28;20065;-51
2022/10/05 00:42:09;;;;;;;6.43;2.72;;;;;;;;;;4989392;28;20054;-49
2022/10/05 00:44:44;;;;;;;5.53;2.38;;;;;;;;;;4984024;28;20050;-50
2022/10/05 00:47:34;;;;;;;5.80;2.90;;;;;;;;;;4983935;28;20056;-50
2022/10/05 00:50:09;;;;;;;8.85;3.08;;;;;;;;;;4986000;28;20058;-49
2022/10/05 00:52:43;;;;;;;5.68;2.67;;;;;;;;;;4993136;28;20074;-50
2022/10/05 00:55:18;;;;;;;7.85;4.18;;;;;;;;;;4993549;28;20424;-49
2022/10/05 00:57:50;;;;;;;7.28;2.88;;;;;;;;;;4993286;28;20054;-49
2022/10/05 01:00:25;;;;;;;5.57;3.15;;;;;;;;;;4993026;28;20455;-49
2022/10/05 01:02:54;;;;;;;10.33;3.23;;;;;;;;;;4992447;28;20054;-49
2022/10/05 01:05:31;;;;;;;8.00;3.22;;;;;;;;;;4993180;28;20059;-52
2022/10/05 01:08:01;;;;;;;8.25;3.38;;;;;;;;;;4996984;28;20137;-52
2022/10/05 01:10:32;;;;;;;7.72;2.83;;;;;;;;;;4990087;28;20173;-51
2022/10/05 01:13:05;;;;;;;9.80;3.30;;;;;;;;;;4978024;28;20058;-51
2022/10/05 01:15:39;;;;;;;6.78;2.88;;;;;;;;;;4985072;28;20058;-49
2022/10/05 01:18:11;;;;;;;7.28;3.03;;;;;;;;;;4976996;28;20073;-50
2022/10/05 01:20:45;;;;;;;7.15;2.90;;;;;;;;;;4993282;28;20054;-51
2022/10/05 01:23:29;;;;;;;10.40;3.17;;;;;;;;;;4980333;28;20054;-53
2022/10/05 01:26:03;;;;;;;7.50;2.85;;;;;;;;;;4977436;28;20137;-49
2022/10/05 01:28:37;;;;;;;4.20;2.03;;;;;;;;;;4974141;28;20058;-52
2022/10/05 01:31:19;;;;;;;9.60;3.05;;;;;;;;;;4981496;28;20123;-48
2022/10/05 01:33:50;;;;;;;4.47;2.47;;;;;;;;;;4971190;28;20162;-49
2022/10/05 01:36:43;;;;;;;4.50;2.17;;;;;;;;;;4973707;28;20054;-49
2022/10/05 01:39:17;;;;;;;6.72;2.75;;;;;;;;;;4973955;28;20055;-49
2022/10/05 01:41:54;;;;;;;6.85;2.25;;;;;;;;;;4992102;28;20058;-52
2022/10/05 01:44:32;;;;;;;7.70;2.55;;;;;;;;;;4989975;28;20380;-51
2022/10/05 01:47:08;;;;;;;6.75;2.45;;;;;;;;;;4987509;28;20125;-51
2022/10/05 01:49:39;;;;;;;6.13;2.28;;;;;;;;;;4992407;28;20054;-49
2022/10/05 01:52:13;;;;;;;6.90;2.83;;;;;;;;;;4991695;28;20061;-49
2022/10/05 01:54:49;;;;;;;9.38;2.40;;;;;;;;;;4992456;28;20051;-49
2022/10/05 01:57:21;;;;;;;5.90;2.63;;;;;;;;;;4992600;28;20054;-49
2022/10/05 02:00:04;;;;;;;4.95;2.30;;;;;;;;;;4992303;28;20388;-49
2022/10/05 02:02:42;;;;;;;5.70;3.20;;;;;;;;;;4992726;28;20298;-49
2022/10/05 02:05:11;;;;;;;6.38;2.50;;;;;;;;;;4992677;28;20046;-49
2022/10/05 02:07:47;;;;;;;8.25;2.95;;;;;;;;;;4992495;28;20046;-49
2022/10/05 02:10:25;;;;;;;7.85;2.40;;;;;;;;;;4986120;28;20058;-50
2022/10/05 02:12:55;;;;;;;6.78;3.08;;;;;;;;;;4991055;28;20464;-50
2022/10/05 02:15:29;;;;;;;6.43;2.70;;;;;;;;;;4995965;28;20126;-51
2022/10/05 02:18:06;;;;;;;7.32;2.47;;;;;;;;;;4995485;28;20129;-50
2022/10/05 02:20:36;;;;;;;6.25;2.25;;;;;;;;;;4996761;28;20051;-49
2022/10/05 02:23:10;;;;;;;4.47;2.10;;;;;;;;;;4981860;28;20056;-49
2022/10/05 02:25:47;;;;;;;6.70;2.65;;;;;;;;;;4996018;28;20050;-50
2022/10/05 02:28:22;;;;;;;8.48;2.35;;;;;;;;;;4996044;28;20050;-49
2022/10/05 02:30:54;;;;;;;6.55;2.25;;;;;;;;;;4996287;28;20058;-49
2022/10/05 02:33:35;;;;;;;4.95;2.50;;;;;;;;;;4995310;28;20510;-49
2022/10/05 02:36:13;;;;;;;8.45;2.90;;;;;;;;;;4996397;28;20058;-50
2022/10/05 02:38:50;;;;;;;7.78;4.00;;;;;;;;;;4995440;28;20475;-49
2022/10/05 02:41:32;;;;;;;5.55;3.20;;;;;;;;;;4995933;28;20051;-50
2022/10/05 02:44:03;;;;;;;10.10;4.60;;;;;;;;;;4983156;28;20058;-50
2022/10/05 02:46:35;;;;;;;11.63;6.00;;;;;;;;;;4996054;28;20058;-49
2022/10/05 02:49:15;;;;;;;12.90;7.53;;;;;;;;;;4988310;28;20054;-52
2022/10/05 02:51:50;;;;;;;12.13;5.32;;;;;;;;;;4987586;28;20063;-49
2022/10/05 02:54:22;;;;;;;12.18;4.88;;;;;;;;;;4986245;28;20050;-49
2022/10/05 02:56:54;;;;;;;9.82;3.80;;;;;;;;;;4976213;28;20062;-49
2022/10/05 02:59:31;;;;;;;10.63;3.90;;;;;;;;;;4976300;28;20058;-49
2022/10/05 03:02:15;;;;;;;9.25;3.13;;;;;;;;;;4990210;28;20050;-52
2022/10/05 03:04:48;;;;;;;6.47;4.03;;;;;;;;;;4995783;28;20064;-49
2022/10/05 03:07:25;;;;;;;8.57;2.97;;;;;;;;;;4993176;28;20050;-49
2022/10/05 03:09:57;;;;;;;7.47;2.80;;;;;;;;;;4995408;28;20050;-49
2022/10/05 03:12:40;;;;;;;6.22;3.08;;;;;;;;;;4994585;28;20054;-49
2022/10/05 03:15:16;;;;;;;8.48;2.63;;;;;;;;;;4987024;28;20061;-49
2022/10/05 03:18:02;;;;;;;6.00;2.83;;;;;;;;;;4985937;28;20051;-49
2022/10/05 03:20:32;;;;;;;5.82;2.95;;;;;;;;;;4993598;28;20064;-51
2022/10/05 03:23:01;;;;;;;7.63;3.30;;;;;;;;;;4976163;28;20066;-53
2022/10/05 03:25:43;;;;;;;7.10;3.40;;;;;;;;;;4975375;28;20082;-49
2022/10/05 03:28:20;;;;;;;6.03;3.15;;;;;;;;;;4975706;28;20345;-52
2022/10/05 03:30:55;;;;;;;7.85;3.03;;;;;;;;;;4988663;28;20054;-53
2022/10/05 03:33:31;;;;;;;6.68;2.67;;;;;;;;;;4985342;28;20047;-53
2022/10/05 03:36:03;;;;;;;7.25;3.05;;;;;;;;;;4975291;28;20468;-53
2022/10/05 03:38:40;;;;;;;7.97;3.20;;;;;;;;;;4975897;28;20047;-52
2022/10/05 03:41:14;;;;;;;9.05;3.28;;;;;;;;;;4985689;28;20475;-52
2022/10/05 03:43:57;;;;;;;10.65;3.83;;;;;;;;;;4994441;28;20380;-50
2022/10/05 03:46:26;;;;;;;9.68;3.50;;;;;;;;;;5003308;28;20371;-51
2022/10/05 03:49:02;;;;;;;8.45;3.30;;;;;;;;;;4976796;28;20058;-51
2022/10/05 03:51:31;;;;;;;4.88;3.22;;;;;;;;;;4975467;28;20050;-52
2022/10/05 03:54:03;;;;;;;6.43;3.40;;;;;;;;;;4993103;28;20050;-49
2022/10/05 03:56:35;;;;;;;7.05;3.58;;;;;;;;;;4994917;28;20054;-49
2022/10/05 03:59:10;;;;;;;8.18;3.78;;;;;;;;;;4976170;28;20449;-50
2022/10/05 04:01:39;;;;;;;7.70;3.40;;;;;;;;;;4986337;28;20050;-52
2022/10/05 04:04:19;;;;;;;10.18;3.83;;;;;;;;;;4993811;28;20054;-51
2022/10/05 04:06:47;;;;;;;10.18;4.55;;;;;;;;;;4994744;28;20153;-49
2022/10/05 04:09:25;;;;;;;13.77;5.43;;;;;;;;;;4993999;28;20046;-52
2022/10/05 04:12:00;;;;;;;20.20;5.70;;;;;;;;;;4994205;28;20137;-49
2022/10/05 04:14:31;;;;;;;10.73;5.35;;;;;;;;;;4984736;28;20054;-51
2022/10/05 04:17:01;;;;;;;16.73;6.65;;;;;;;;;;4980093;28;20054;-50
2022/10/05 04:19:36;;;;;;;20.10;5.97;;;;;;;;;;4983790;28;20136;-50
2022/10/05 04:22:07;;;;;;;14.57;5.88;;;;;;;;;;4985972;28;20058;-49
2022/10/05 04:24:40;;;;;;;14.63;5.85;;;;;;;;;;4985784;28;20070;-49
2022/10/05 04:27:11;;;;;;;12.68;5.28;;;;;;;;;;4988494;28;20130;-49
2022/10/05 04:29:44;;;;;;;14.02;4.82;;;;;;;;;;4988978;28;20057;-49
2022/10/05 04:32:25;;;;;;;8.85;4.25;;;;;;;;;;4993238;28;20057;-49
2022/10/05 04:35:02;;;;;;;8.25;3.75;;;;;;;;;;4983845;28;20061;-49
2022/10/05 04:37:34;;;;;;;11.80;4.47;;;;;;;;;;4981969;28;20051;-49
2022/10/05 04:40:05;;;;;;;9.10;3.58;;;;;;;;;;4988588;28;20062;-49
2022/10/05 04:42:39;;;;;;;7.97;3.38;;;;;;;;;;4993242;28;20061;-50
2022/10/05 04:45:11;;;;;;;7.43;3.67;;;;;;;;;;4979236;28;20050;-50
2022/10/05 04:47:52;;;;;;;11.98;4.15;;;;;;;;;;4990958;28;20511;-49
2022/10/05 04:50:37;;;;;;;8.13;4.20;;;;;;;;;;4989234;28;20464;-47
2022/10/05 04:53:16;;;;;;;6.07;3.30;;;;;;;;;;4979925;28;20054;-48
2022/10/05 04:55:52;;;;;;;7.10;3.53;;;;;;;;;;4991463;28;20050;-48
2022/10/05 04:58:24;;;;;;;5.90;3.58;;;;;;;;;;4985656;28;20428;-47
2022/10/05 05:00:56;;;;;;;8.77;4.03;;;;;;;;;;4987969;28;20145;-47
2022/10/05 05:04:00;;;;;;;8.55;3.45;;;;;;;;;;4993297;28;20062;-47
2022/10/05 05:06:32;;;;;;;10.63;3.33;;;;;;;;;;4992761;28;20074;-47
2022/10/05 05:09:11;;;;;;;7.07;3.85;;;;;;;;;;4991457;28;20104;-47
2022/10/05 05:11:45;;;;;;;9.23;4.15;;;;;;;;;;4990216;28;20057;-48
2022/10/05 05:14:29;;;;;;;12.20;6.00;;;;;;;;;;4986767;28;20046;-47
2022/10/05 05:17:04;;;;;;;11.82;4.57;;;;;;;;;;4989725;28;20369;-48
2022/10/05 05:19:39;;;;;;;12.50;5.65;;;;;;;;;;4989350;28;20506;-51
2022/10/05 05:22:07;;;;;;;14.48;5.72;;;;;;;;;;4989263;28;20141;-48
2022/10/05 05:24:49;;;;;;;10.82;5.10;;;;;;;;;;4991252;28;20144;-47
2022/10/05 05:27:41;;;;;;;7.53;4.35;;;;;;;;;;4991808;28;20064;-49
2022/10/05 05:30:17;;;;;;;8.30;3.80;;;;;;;;;;4983933;28;20081;-50
2022/10/05 05:32:54;;;;;;;7.18;3.17;;;;;;;;;;4990395;28;20397;-50
2022/10/05 05:35:30;;;;;;;7.43;3.58;;;;;;;;;;4992961;28;20069;-47
2022/10/05 05:38:06;;;;;;;6.68;3.95;;;;;;;;;;4991843;28;20964;-47
2022/10/05 05:40:51;;;;;;;9.88;4.45;;;;;;;;;;4987850;28;20141;-49
2022/10/05 05:43:26;;;;;;;12.57;3.90;;;;;;;;;;4999392;28;20054;-48
2022/10/05 05:45:57;;;;;;;7.75;3.42;;;;;;;;;;4973615;28;20055;-48
2022/10/05 05:48:27;;;;;;;8.65;3.85;;;;;;;;;;5004243;28;20501;-49
2022/10/05 05:50:59;;;;;;;11.68;4.30;;;;;;;;;;4991894;28;20095;-48
2022/10/05 05:53:30;;;;;;;9.07;3.63;;;;;;;;;;4998302;28;20050;-47
2022/10/05 05:56:06;;;;;;;9.85;4.00;;;;;;;;;;4993300;28;20054;-50
2022/10/05 05:58:37;;;;;;;8.27;4.40;;;;;;;;;;5003445;28;20053;-50
2022/10/05 06:01:11;;;;;;;8.23;4.90;;;;;;;;;;4984659;28;20050;-51
2022/10/05 06:03:49;;;;;;;11.63;4.07;;;;;;;;;;4996195;28;20069;-49
2022/10/05 06:06:19;;;;;;;9.02;3.75;;;;;;;;;;4996717;28;20160;-50
2022/10/05 06:08:47;;;;;;;14.07;4.22;;;;;;;;;;4996087;28;20403;-48
2022/10/05 06:11:31;;;;;;;7.78;4.40;;;;;;;;;;4996380;28;20113;-50
2022/10/05 06:14:01;;;;;;;7.68;4.10;;;;;;;;;;4996181;28;20058;-47
2022/10/05 06:16:33;;;;;;;11.25;5.00;;;;;;;;;;4996731;28;20061;-50
2022/10/05 06:19:05;;;;;;;7.63;3.65;;;;;;;;;;4995053;28;20050;-51
2022/10/05 06:21:42;;;;;;;17.38;4.97;;;;;;;;;;4996468;28;20308;-49
2022/10/05 06:24:15;;;;;;;7.53;3.78;;;;;;;;;;4995759;28;20050;-49
2022/10/05 06:27:00;;;;;;;13.13;4.80;;;;;;;;;;4957552;28;20134;-50
2022/10/05 06:29:44;;;;;;;10.68;4.47;;;;;;;;;;4956660;28;20054;-50
2022/10/05 06:32:23;;;;;;;6.22;4.13;;;;;;;;;;4957619;29;20051;-48
2022/10/05 06:34:56;;;;;;;9.27;4.00;;;;;;;;;;4956139;28;20105;-48
2022/10/05 06:37:32;;;;;;;13.43;4.32;;;;;;;;;;4957091;29;20421;-50
2022/10/05 06:40:08;;;;;;;6.80;3.53;;;;;;;;;;4943288;28;20135;-48
2022/10/05 06:42:54;;;;;;;8.93;4.90;;;;;;;;;;4957005;29;20437;-48
2022/10/05 06:45:27;;;;;;;10.93;4.78;;;;;;;;;;4945889;29;20051;-48
2022/10/05 06:48:01;;;;;;;9.90;4.28;;;;;;;;;;4938136;29;20674;-47
2022/10/05 06:50:36;;;;;;;10.57;4.50;;;;;;;;;;4955015;29;20082;-47
2022/10/05 06:53:29;;;;;;;9.23;4.00;;;;;;;;;;4957059;28;20070;-47
2022/10/05 06:56:04;;;;;;;7.68;3.83;;;;;;;;;;4946339;29;20134;-48
2022/10/05 06:58:44;;;;;;;13.70;4.80;;;;;;;;;;4954747;28;20047;-46
2022/10/05 07:01:15;;;;;;;6.43;4.32;;;;;;;;;;4953870;28;20055;-48
2022/10/05 07:04:04;;;;;;;7.85;4.10;;;;;;;;;;4956614;28;20089;-48
2022/10/05 07:06:37;;;;;;;9.45;4.32;;;;;;;;;;4954559;28;20055;-48
2022/10/05 07:09:17;;;;;;;11.75;4.10;;;;;;;;;;4953314;29;20074;-48
2022/10/05 07:12:00;;;;;;;5.72;3.95;;;;;;;;;;4955308;28;20129;-48
2022/10/05 07:14:38;;;;;;;6.55;3.92;;;;;;;;;;4955545;28;20050;-47
2022/10/05 07:17:17;;;;;;;6.53;4.28;;;;;;;;;;4956557;29;20142;-48
2022/10/05 07:20:05;;;;;;;9.30;4.20;;;;;;;;;;4951691;29;20052;-48
2022/10/05 07:23:05;;;;;;;8.88;4.28;;;;;;;;;;4954727;28;20061;-51
2022/10/05 07:25:36;;;;;;;8.63;4.43;;;;;;;;;;4964113;28;20062;-48
2022/10/05 07:28:11;;;;;;;6.82;3.97;;;;;;;;;;4981430;28;20084;-51
2022/10/05 07:31:05;;;;;;;10.88;4.00;;;;;;;;;;5000214;28;20049;-48
2022/10/05 07:33:40;;;;;;;8.60;4.28;;;;;;;;;;5001103;28;20479;-48
2022/10/05 07:39:16;;;;;;;12.88;4.57;;;;;;;;;;4989855;28;20117;-49
2022/10/05 07:41:47;;;;;;;9.63;3.78;;;;;;;;;;4993920;28;20391;-48
2022/10/05 07:44:19;;;;;;;8.23;4.18;;;;;;;;;;5002913;28;20068;-48
2022/10/05 07:46:51;;;;;;;9.30;4.07;;;;;;;;;;4997187;28;20073;-51
2022/10/05 07:49:25;;;;;;;9.45;3.97;;;;;;;;;;4994231;28;20043;-49
2022/10/05 07:51:58;;;;;;;8.65;4.28;;;;;;;;;;4993972;28;20534;-49
2022/10/05 07:54:29;;;;;;;10.82;4.70;;;;;;;;;;4994573;28;20062;-48
2022/10/05 07:57:00;;;;;;;7.18;4.20;;;;;;;;;;4993648;28;20471;-49
2022/10/05 07:59:32;;;;;;;8.98;4.13;;;;;;;;;;4994423;28;20038;-48
2022/10/05 08:02:06;;;;;;;7.78;4.80;;;;;;;;;;4994398;28;20051;-47
2022/10/05 08:04:40;;;;;;;9.30;4.88;;;;;;;;;;4994600;28;20223;-49
2022/10/05 08:07:23;;;;;;;10.52;5.57;;;;;;;;;;4994335;28;20238;-49
2022/10/05 08:10:07;;;;;;;9.82;3.80;;;;;;;;;;5002768;28;20050;-51
2022/10/05 08:12:36;;;;;;;12.88;3.80;;;;;;;;;;4994556;28;20053;-48
2022/10/05 08:15:09;;;;;;;8.82;3.97;;;;;;;;;;4994310;28;20047;-51
2022/10/05 08:17:46;;;;;;;8.15;3.92;;;;;;;;;;4997009;28;20084;-49
2022/10/05 08:20:23;;;;;;;12.00;4.30;;;;;;;;;;4994324;28;20050;-48
2022/10/05 08:22:56;;;;;;;8.18;4.22;;;;;;;;;;5002176;28;20065;-50
2022/10/05 08:25:25;;;;;;;10.80;3.75;;;;;;;;;;4993322;28;20058;-48
2022/10/05 08:27:55;;;;;;;8.80;4.80;;;;;;;;;;5007376;28;20050;-50
2022/10/05 08:30:24;;;;;;;7.78;4.10;;;;;;;;;;4994145;28;20057;-47
2022/10/05 08:32:55;;;;;;;9.73;3.88;;;;;;;;;;4993323;28;20391;-48
2022/10/05 08:35:50;;;;;;;7.47;4.13;;;;;;;;;;4994030;28;20057;-48
2022/10/05 08:38:25;;;;;;;11.25;4.53;;;;;;;;;;5006928;28;20058;-48
2022/10/05 08:41:15;;;;;;;10.27;4.37;;;;;;;;;;4993794;28;20057;-48
2022/10/05 08:44:14;;;;;;;10.60;4.75;;;;;;;;;;5001746;28;20054;-47
2022/10/05 08:47:10;;;;;;;7.07;3.88;;;;;;;;;;4973094;28;20062;-48
2022/10/05 08:50:01;;;;;;;10.57;3.53;;;;;;;;;;4985181;28;20042;-47
2022/10/05 08:52:37;;;;;;;9.93;4.18;;;;;;;;;;4977055;28;20042;-47
2022/10/05 08:55:29;;;;;;;6.88;3.45;;;;;;;;;;4980168;28;20051;-47
2022/10/05 08:58:17;;;;;;;6.45;4.00;;;;;;;;;;4974402;28;20082;-47
2022/10/05 09:01:14;;;;;;;8.43;3.97;;;;;;;;;;4991686;28;20349;-51
2022/10/05 09:03:56;;;;;;;9.68;3.72;;;;;;;;;;4993251;28;20089;-51
2022/10/05 09:06:45;;;;;;;7.38;3.20;;;;;;;;;;4988901;28;20056;-48
2022/10/05 09:09:33;;;;;;;11.15;3.50;;;;;;;;;;4991029;28;20046;-51
2022/10/05 09:12:15;;;;;;;7.90;3.42;;;;;;;;;;4984920;28;20116;-49
2022/10/05 09:14:50;;;;;;;7.45;3.65;;;;;;;;;;4981433;28;20054;-48
2022/10/05 09:17:38;;;;;;;7.97;4.10;;;;;;;;;;4992178;28;20460;-48
2022/10/05 09:20:27;;;;;;;11.50;4.22;;;;;;;;;;4985386;28;20049;-48
2022/10/05 09:23:09;;;;;;;17.92;5.32;;;;;;;;;;4985638;28;20506;-51
2022/10/05 09:25:47;;;;;;;8.45;3.90;;;;;;;;;;4992554;28;20094;-50
2022/10/05 09:28:40;;;;;;;8.05;3.88;;;;;;;;;;4980343;28;20050;-48
2022/10/05 09:31:25;;;;;;;20.67;4.80;;;;;;;;;;4992211;28;20054;-47
2022/10/05 09:34:11;;;;;;;8.20;3.60;;;;;;;;;;4973541;28;20133;-48
2022/10/05 09:37:01;;;;;;;10.25;4.10;;;;;;;;;;4949354;28;20050;-48
2022/10/05 09:39:54;;;;;;;9.02;4.47;;;;;;;;;;4991788;28;20129;-48
2022/10/05 09:42:41;;;;;;;13.00;4.30;;;;;;;;;;4987110;28;20129;-49
2022/10/05 09:45:34;;;;;;;6.72;3.83;;;;;;;;;;4981481;28;20054;-48
2022/10/05 09:48:37;;;;;;;8.18;4.30;;;;;;;;;;4912575;28;20466;-48
2022/10/05 09:51:22;;;;;;;8.07;4.43;;;;;;;;;;4981338;28;20043;-47
2022/10/05 09:54:05;;;;;;;7.13;4.03;;;;;;;;;;4983362;28;20046;-51
2022/10/05 09:56:41;;;;;;;9.98;4.65;;;;;;;;;;4982262;28;20084;-48
2022/10/05 09:59:23;;;;;;;11.82;3.70;;;;;;;;;;4982672;28;20058;-49
2022/10/05 10:02:16;;;;;;;8.50;3.58;;;;;;;;;;4992720;28;20380;-48
2022/10/05 10:05:00;;;;;;;15.02;4.28;;;;;;;;;;4987775;28;20090;-49
2022/10/05 10:07:42;;;;;;;7.22;4.38;;;;;;;;;;4987251;28;20070;-48
2022/10/05 10:10:38;;;;;;;10.35;4.63;;;;;;;;;;4970353;28;20066;-51
2022/10/05 10:13:23;;;;;;;7.65;3.83;;;;;;;;;;4973438;28;20495;-47
2022/10/05 10:16:12;;;;;;;7.00;3.83;;;;;;;;;;4986590;28;20109;-51
2022/10/05 10:19:03;;;;;;;9.40;3.97;;;;;;;;;;4973458;28;20046;-48
2022/10/05 10:22:03;;;;;;;14.70;4.90;;;;;;;;;;4984809;28;20078;-50
2022/10/05 10:24:54;;;;;;;8.70;3.83;;;;;;;;;;4973032;28;20050;-48
2022/10/05 10:27:36;;;;;;;9.43;4.20;;;;;;;;;;4981711;28;20050;-48
2022/10/05 10:30:17;;;;;;;9.02;3.78;;;;;;;;;;4970819;28;20357;-51
2022/10/05 10:33:12;;;;;;;10.43;4.13;;;;;;;;;;4986230;28;20058;-51
2022/10/05 10:35:52;;;;;;;8.60;3.90;;;;;;;;;;5002580;28;20054;-49
2022/10/05 10:38:50;;;;;;;6.57;3.60;;;;;;;;;;4995323;28;20046;-48
2022/10/05 10:41:52;;;;;;;7.68;3.88;;;;;;;;;;4952391;28;20124;-48
2022/10/05 10:44:37;;;;;;;7.68;3.58;;;;;;;;;;4914853;29;20067;-49
2022/10/05 10:47:25;;;;;;;7.55;3.72;;;;;;;;;;4989658;28;20416;-51
2022/10/05 10:50:04;;;;;;;8.35;3.63;;;;;;;;;;5008068;28;20467;-47
2022/10/05 10:52:47;;;;;;;5.70;3.60;;;;;;;;;;4982958;28;20053;-46
2022/10/05 10:55:33;;;;;;;7.22;3.97;;;;;;;;;;4994285;28;20137;-48
2022/10/05 10:58:22;;;;;;;12.73;4.45;;;;;;;;;;4976004;28;20058;-48
2022/10/05 11:00:54;;;;;;;11.10;3.92;;;;;;;;;;4989141;28;20050;-48
2022/10/05 11:03:42;;;;;;;7.07;3.90;;;;;;;;;;4994329;28;20056;-48
2022/10/05 11:06:26;;;;;;;7.88;3.53;;;;;;;;;;4982135;28;20434;-48
2022/10/05 11:09:08;;;;;;;11.50;4.78;;;;;;;;;;4939616;28;20113;-51
2022/10/05 11:11:52;;;;;;;6.95;3.50;;;;;;;;;;4994526;28;20046;-50
2022/10/05 11:14:39;;;;;;;9.30;4.10;;;;;;;;;;4992780;28;20057;-49
2022/10/05 11:17:22;;;;;;;10.38;4.93;;;;;;;;;;4998151;28;20054;-49
2022/10/05 11:20:08;;;;;;;10.63;4.07;;;;;;;;;;4991563;28;20046;-47
2022/10/05 11:22:54;;;;;;;7.40;3.60;;;;;;;;;;4994751;28;20141;-47
2022/10/05 11:25:41;;;;;;;11.32;4.40;;;;;;;;;;4994369;28;20066;-47
2022/10/05 11:28:26;;;;;;;6.68;3.47;;;;;;;;;;4994660;28;20050;-48
2022/10/05 11:31:34;;;;;;;6.72;3.75;;;;;;;;;;4994537;28;20061;-51
2022/10/05 11:34:22;;;;;;;10.27;3.90;;;;;;;;;;4983590;28;20062;-47
2022/10/05 11:37:11;;;;;;;7.30;4.03;;;;;;;;;;4990873;28;20086;-47
2022/10/05 11:39:57;;;;;;;9.52;3.53;;;;;;;;;;4993380;28;20430;-46
2022/10/05 11:42:37;;;;;;;13.07;4.05;;;;;;;;;;4985796;28;20078;-47
2022/10/05 11:45:23;;;;;;;10.18;3.90;;;;;;;;;;4991106;28;20133;-50
2022/10/05 11:48:03;;;;;;;6.70;3.95;;;;;;;;;;4987530;28;20132;-49
2022/10/05 11:50:37;;;;;;;11.23;4.10;;;;;;;;;;4987965;28;20134;-48
2022/10/05 11:53:09;;;;;;;9.05;4.35;;;;;;;;;;4992593;28;20050;-50
2022/10/05 11:55:42;;;;;;;8.88;4.70;;;;;;;;;;4988560;28;20129;-49
2022/10/05 11:58:13;;;;;;;10.43;3.60;;;;;;;;;;4994661;28;20073;-47
2022/10/05 12:00:53;;;;;;;13.68;4.65;;;;;;;;;;4990441;28;20053;-48
2022/10/05 12:03:37;;;;;;;9.70;3.70;;;;;;;;;;4985975;28;20058;-48
2022/10/05 12:06:22;;;;;;;9.77;4.18;;;;;;;;;;4990378;28;20078;-49
2022/10/05 12:08:55;;;;;;;13.37;6.17;;;;;;;;;;4994956;28;20056;-47
2022/10/05 12:11:48;;;;;;;9.80;4.70;;;;;;;;;;4983327;28;20298;-47
2022/10/05 12:14:20;;;;;;;14.30;5.00;;;;;;;;;;4982718;28;20054;-48
2022/10/05 12:16:54;;;;;;;9.55;4.45;;;;;;;;;;4982146;28;20548;-49
2022/10/05 12:19:39;;;;;;;10.15;4.57;;;;;;;;;;4984496;28;20069;-49
2022/10/05 12:22:14;;;;;;;8.90;4.07;;;;;;;;;;4984279;28;20503;-48
2022/10/05 12:25:03;;;;;;;9.82;3.47;;;;;;;;;;4982103;28;20061;-48
2022/10/05 12:27:33;;;;;;;9.82;4.22;;;;;;;;;;4984703;28;20078;-47
2022/10/05 12:30:05;;;;;;;8.57;3.83;;;;;;;;;;4993385;28;20053;-47
2022/10/05 12:32:36;;;;;;;7.20;3.53;;;;;;;;;;4989755;28;20050;-49
2022/10/05 12:35:10;;;;;;;9.75;3.95;;;;;;;;;;4993774;28;20391;-48
2022/10/05 12:37:51;;;;;;;10.27;3.97;;;;;;;;;;4993130;28;20050;-47
2022/10/05 12:40:27;;;;;;;7.68;3.83;;;;;;;;;;4993559;28;20053;-47
2022/10/05 12:43:14;;;;;;;8.38;4.32;;;;;;;;;;4993857;28;20073;-48
2022/10/05 12:45:48;;;;;;;10.73;4.00;;;;;;;;;;4978211;28;20056;-48
2022/10/05 12:48:47;;;;;;;16.27;4.67;;;;;;;;;;4993285;28;20464;-47
2022/10/05 12:51:20;;;;;;;8.32;4.22;;;;;;;;;;4993267;28;20305;-48
2022/10/05 12:53:51;;;;;;;19.88;4.82;;;;;;;;;;4994031;28;20056;-48
2022/10/05 12:56:26;;;;;;;9.57;3.92;;;;;;;;;;4993457;28;20054;-50
2022/10/05 12:59:01;;;;;;;9.93;3.67;;;;;;;;;;4989880;28;20134;-51
2022/10/05 13:01:40;;;;;;;12.35;4.03;;;;;;;;;;4984532;28;20050;-51
2022/10/05 13:04:14;;;;;;;13.52;5.05;;;;;;;;;;4980806;28;20047;-49
2022/10/05 13:06:47;;;;;;;8.65;4.18;;;;;;;;;;4974144;28;20058;-50
2022/10/05 13:09:22;;;;;;;7.80;4.00;;;;;;;;;;4991761;28;20050;-51
2022/10/05 13:11:59;;;;;;;11.80;5.07;;;;;;;;;;4990747;28;20062;-51
2022/10/05 13:14:41;;;;;;;15.95;5.57;;;;;;;;;;4989926;28;20050;-47
2022/10/05 13:17:16;;;;;;;9.32;4.53;;;;;;;;;;4991869;28;20074;-47
2022/10/05 13:19:48;;;;;;;10.30;4.85;;;;;;;;;;4981834;28;20144;-47
2022/10/05 13:22:36;;;;;;;11.88;4.40;;;;;;;;;;4987522;28;20050;-48
2022/10/05 13:25:20;;;;;;;12.38;4.65;;;;;;;;;;4992073;28;20062;-47
2022/10/05 13:27:56;;;;;;;8.38;4.38;;;;;;;;;;4989928;28;20065;-47
2022/10/05 13:30:26;;;;;;;9.20;4.75;;;;;;;;;;4989166;28;20129;-49
2022/10/05 13:33:03;;;;;;;8.77;4.50;;;;;;;;;;4992728;28;20521;-47
2022/10/05 13:35:42;;;;;;;12.98;4.32;;;;;;;;;;4997250;28;20168;-48
2022/10/05 13:38:23;;;;;;;10.57;5.63;;;;;;;;;;4979507;28;20063;-47
2022/10/05 13:41:10;;;;;;;9.13;4.07;;;;;;;;;;4985455;28;20042;-47
2022/10/05 13:43:42;;;;;;;7.47;3.67;;;;;;;;;;4990788;28;20090;-47
2022/10/05 13:46:16;;;;;;;10.32;3.90;;;;;;;;;;4983102;28;20051;-47
2022/10/05 13:48:51;;;;;;;7.30;3.40;;;;;;;;;;4989626;28;20086;-50
2022/10/05 13:51:29;;;;;;;7.63;3.28;;;;;;;;;;4987641;28;20050;-49
2022/10/05 13:54:14;;;;;;;8.68;3.33;;;;;;;;;;4992723;28;20047;-47
2022/10/05 13:56:44;;;;;;;9.60;3.53;;;;;;;;;;4982854;28;20062;-47
2022/10/05 13:59:15;;;;;;;6.93;3.58;;;;;;;;;;4977711;28;20043;-47
2022/10/05 14:01:51;;;;;;;11.77;3.97;;;;;;;;;;4988676;28;20170;-47
2022/10/05 14:04:19;;;;;;;7.68;6.05;;;;;;;;;;4993148;28;20142;-50
2022/10/05 14:06:49;;;;;;;11.73;4.75;;;;;;;;;;5004212;28;20069;-50
2022/10/05 14:09:33;;;;;;;9.98;4.40;;;;;;;;;;4995431;28;20456;-49
2022/10/05 14:12:14;;;;;;;5.25;3.22;;;;;;;;;;4996660;28;20050;-47
2022/10/05 14:14:44;;;;;;;7.40;3.28;;;;;;;;;;4984418;28;20054;-47
2022/10/05 14:17:15;;;;;;;6.55;3.40;;;;;;;;;;4996257;28;20057;-47
2022/10/05 14:19:47;;;;;;;11.98;3.13;;;;;;;;;;4991726;28;20079;-47
2022/10/05 14:22:23;;;;;;;5.25;3.05;;;;;;;;;;4995744;28;20046;-49
2022/10/05 14:24:58;;;;;;;8.10;3.30;;;;;;;;;;4983528;28;20046;-49
2022/10/05 14:27:26;;;;;;;7.25;3.60;;;;;;;;;;4996386;28;20054;-47
2022/10/05 14:29:59;;;;;;;7.28;3.33;;;;;;;;;;4984890;28;20058;-47
2022/10/05 14:32:42;;;;;;;10.75;4.40;;;;;;;;;;4999193;28;20069;-48
2022/10/05 14:35:24;;;;;;;10.13;3.67;;;;;;;;;;4978158;28;20058;-50
2022/10/05 14:38:18;;;;;;;10.70;4.20;;;;;;;;;;4993803;28;20046;-49
2022/10/05 14:41:04;;;;;;;8.27;3.85;;;;;;;;;;4988033;28;20054;-50
2022/10/05 14:43:32;;;;;;;8.98;3.97;;;;;;;;;;4994992;28;20059;-47
2022/10/05 14:46:03;;;;;;;8.00;3.65;;;;;;;;;;4992511;28;20054;-47
2022/10/05 14:48:38;;;;;;;8.55;3.95;;;;;;;;;;4995949;28;20057;-47
2022/10/05 14:51:09;;;;;;;7.30;3.50;;;;;;;;;;4991833;28;20054;-48
2022/10/05 14:53:42;;;;;;;9.40;3.70;;;;;;;;;;4995094;28;20460;-47
2022/10/05 14:56:42;;;;;;;7.82;3.83;;;;;;;;;;4990864;28;20387;-48
2022/10/05 14:59:23;;;;;;;15.05;4.20;;;;;;;;;;4995286;28;20455;-46
2022/10/05 15:02:14;;;;;;;12.70;7.55;;;;;;;;;;4995982;28;20078;-50
2022/10/05 15:04:51;;;;;;;43.35;19.17;;;;;;;;;;4990395;28;20138;-46
2022/10/05 15:07:21;;;;;;;15.95;7.55;;;;;;;;;;4995816;28;20052;-47
2022/10/05 15:09:55;;;;;;;12.73;4.78;;;;;;;;;;4995998;28;20042;-49
2022/10/05 15:12:30;;;;;;;9.35;5.03;;;;;;;;;;4990837;28;20042;-48
2022/10/05 15:14:57;;;;;;;;;;;;;;;;;;4994212;28;20054;-47
2022/10/05 15:17:27;;;;;;;9.07;3.85;;;;;;;;;;4993506;28;20378;-48
2022/10/05 15:19:58;;;;;;;10.32;4.55;;;;;;;;;;4990591;28;20058;-47
2022/10/05 15:22:58;;;;;;;14.10;4.30;;;;;;;;;;4987963;28;20113;-46
2022/10/05 15:25:33;;;;;;;9.30;4.50;;;;;;;;;;4995323;28;20062;-47
2022/10/05 15:28:16;;;;;;;15.00;4.03;;;;;;;;;;4994889;28;20061;-48
2022/10/05 15:30:46;;;;;;;7.20;3.90;;;;;;;;;;4988939;28;20054;-46
2022/10/05 15:33:19;;;;;;;9.52;4.47;;;;;;;;;;4994737;28;20050;-49
2022/10/05 15:36:04;;;;;;;9.60;4.68;;;;;;;;;;4987564;28;20050;-49
2022/10/05 15:38:33;;;;;;;11.10;4.55;;;;;;;;;;4988905;28;20093;-46
2022/10/05 15:41:10;;;;;;;5.53;3.17;;;;;;;;;;4992421;28;20052;-47
2022/10/05 15:44:01;;;;;;;6.30;3.78;;;;;;;;;;4985510;28;20054;-46
2022/10/05 15:46:38;;;;;;;6.93;4.10;;;;;;;;;;4991595;28;20050;-47